sensor_id;sensor_type;location;lat;lon;timestamp;pressure;altitude;pressure_sealevel;temperature;humidity
28008;BME280;15333;50.010;20.020;2023-05-29T00:02:57;98978.97;;;9.34;100.00
28008;BME280;15333;50.010;20.020;2023-05-29T00:05:57;98981.81;;;9.31;100.00
28008;BME280;15333;50.010;20.020;2023-05-29T00:08:58;98984.91;;;9.25;100.00
28008;BME280;15333;50.010;20.020;2023-05-29T00:11:59;98978.25;;;9.18;100.00
28008;BME280;15333;50.010;20.020;2023-05-29T00:15:03;98977.53;;;9.16;100.00
28008;BME280;15333;50.010;20.020;2023-05-29T00:18:06;98976.09;;;9.10;100.00
28008;BME280;15333;50.010;20.020;2023-05-29T00:21:07;98977.47;;;9.03;100.00
28008;BME280;15333;50.010;20.020;2023-05-29T00:24:09;98975.13;;;8.98;100.00
28008;BME280;15333;50.010;20.020;2023-05-29T00:27:12;98972.31;;;8.87;100.00
28008;BME280;15333;50.010;20.020;2023-05-29T00:30:13;98970.59;;;8.86;100.00
28008;BME280;15333;50.010;20.020;2023-05-29T00:33:14;98973.91;;;8.90;100.00
28008;BME280;15333;50.010;20.020;2023-05-29T00:36:16;98977.03;;;8.96;100.00
28008;BME280;15333;50.010;20.020;2023-05-29T00:39:17;98975.47;;;9.07;100.00
28008;BME280;15333;50.010;20.020;2023-05-29T00:42:18;98969.78;;;8.98;100.00
28008;BME280;15333;50.010;20.020;2023-05-29T00:45:20;98972.19;;;8.89;100.00
28008;BME280;15333;50.010;20.020;2023-05-29T00:48:20;98973.81;;;8.91;100.00
28008;BME280;15333;50.010;20.020;2023-05-29T00:51:22;98972.94;;;8.91;100.00
28008;BME280;15333;50.010;20.020;2023-05-29T00:54:26;98974.13;;;8.87;100.00
28008;BME280;15333;50.010;20.020;2023-05-29T00:57:28;98969.47;;;8.76;100.00
28008;BME280;15333;50.010;20.020;2023-05-29T01:00:29;98967.13;;;8.72;100.00
28008;BME280;15333;50.010;20.020;2023-05-29T01:03:31;98965.13;;;8.61;100.00
28008;BME280;15333;50.010;20.020;2023-05-29T01:06:34;98964.88;;;8.51;100.00
28008;BME280;15333;50.010;20.020;2023-05-29T01:09:35;98959.09;;;8.45;100.00
28008;BME280;15333;50.010;20.020;2023-05-29T01:12:50;98971.09;;;8.38;100.00
28008;BME280;15333;50.010;20.020;2023-05-29T01:16:23;98961.94;;;8.27;100.00
28008;BME280;15333;50.010;20.020;2023-05-29T01:23:12;98975.69;;;8.36;100.00
28008;BME280;15333;50.010;20.020;2023-05-29T01:29:45;98965.75;;;8.23;100.00
28008;BME280;15333;50.010;20.020;2023-05-29T01:32:47;98966.97;;;8.18;100.00
28008;BME280;15333;50.010;20.020;2023-05-29T01:35:49;98962.72;;;8.15;100.00
28008;BME280;15333;50.010;20.020;2023-05-29T01:38:51;98960.22;;;8.12;100.00
28008;BME280;15333;50.010;20.020;2023-05-29T01:41:53;98957.56;;;8.12;100.00
28008;BME280;15333;50.010;20.020;2023-05-29T01:44:56;98959.09;;;8.16;100.00
28008;BME280;15333;50.010;20.020;2023-05-29T01:47:58;98962.31;;;8.21;100.00
28008;BME280;15333;50.010;20.020;2023-05-29T01:50:59;98957.56;;;8.12;100.00
28008;BME280;15333;50.010;20.020;2023-05-29T01:54:01;98949.00;;;8.07;100.00
28008;BME280;15333;50.010;20.020;2023-05-29T01:57:02;98954.72;;;8.01;100.00
28008;BME280;15333;50.010;20.020;2023-05-29T02:00:07;98949.59;;;7.98;100.00
28008;BME280;15333;50.010;20.020;2023-05-29T02:03:15;98953.97;;;7.99;100.00
28008;BME280;15333;50.010;20.020;2023-05-29T02:06:16;98950.91;;;8.05;100.00
28008;BME280;15333;50.010;20.020;2023-05-29T02:09:17;98952.53;;;8.08;100.00
28008;BME280;15333;50.010;20.020;2023-05-29T02:12:18;98956.25;;;8.05;100.00
28008;BME280;15333;50.010;20.020;2023-05-29T02:15:19;98954.72;;;8.01;100.00
28008;BME280;15333;50.010;20.020;2023-05-29T02:18:22;98948.63;;;7.99;100.00
28008;BME280;15333;50.010;20.020;2023-05-29T02:21:23;98949.19;;;8.04;100.00
28008;BME280;15333;50.010;20.020;2023-05-29T02:24:24;98950.13;;;8.03;100.00
28008;BME280;15333;50.010;20.020;2023-05-29T02:27:24;98956.06;;;7.94;100.00
28008;BME280;15333;50.010;20.020;2023-05-29T02:30:25;98939.50;;;7.89;100.00
28008;BME280;15333;50.010;20.020;2023-05-29T02:33:28;98935.31;;;7.85;100.00
28008;BME280;15333;50.010;20.020;2023-05-29T02:45:12;98939.69;;;7.86;100.00
28008;BME280;15333;50.010;20.020;2023-05-29T02:48:13;98945.69;;;7.90;100.00
28008;BME280;15333;50.010;20.020;2023-05-29T02:51:14;98944.47;;;7.95;100.00
28008;BME280;15333;50.010;20.020;2023-05-29T02:54:15;98942.75;;;7.94;100.00
28008;BME280;15333;50.010;20.020;2023-05-29T02:57:16;98939.00;;;7.97;100.00
28008;BME280;15333;50.010;20.020;2023-05-29T03:00:17;98943.84;;;8.18;100.00
28008;BME280;15333;50.010;20.020;2023-05-29T03:03:18;98940.22;;;8.48;100.00
28008;BME280;15333;50.010;20.020;2023-05-29T03:06:19;98931.94;;;8.79;100.00
28008;BME280;15333;50.010;20.020;2023-05-29T03:09:21;98933.19;;;9.13;100.00
28008;BME280;15333;50.010;20.020;2023-05-29T03:12:22;98936.13;;;9.35;100.00
28008;BME280;15333;50.010;20.020;2023-05-29T03:15:22;98929.84;;;9.49;100.00
28008;BME280;15333;50.010;20.020;2023-05-29T03:18:23;98930.06;;;9.71;100.00
28008;BME280;15333;50.010;20.020;2023-05-29T03:21:24;98928.44;;;9.81;100.00
28008;BME280;15333;50.010;20.020;2023-05-29T03:24:26;98931.00;;;9.70;100.00
28008;BME280;15333;50.010;20.020;2023-05-29T03:27:28;98935.72;;;9.79;100.00
28008;BME280;15333;50.010;20.020;2023-05-29T03:30:37;98935.69;;;10.05;100.00
28008;BME280;15333;50.010;20.020;2023-05-29T03:33:38;98947.06;;;10.21;100.00
28008;BME280;15333;50.010;20.020;2023-05-29T03:36:55;98938.88;;;10.10;100.00
28008;BME280;15333;50.010;20.020;2023-05-29T03:39:58;98940.41;;;10.14;100.00
28008;BME280;15333;50.010;20.020;2023-05-29T03:42:59;98942.97;;;10.03;100.00
28008;BME280;15333;50.010;20.020;2023-05-29T03:46:00;98941.47;;;9.99;100.00
28008;BME280;15333;50.010;20.020;2023-05-29T03:49:04;98947.03;;;9.96;100.00
28008;BME280;15333;50.010;20.020;2023-05-29T03:52:06;98948.31;;;10.03;100.00
28008;BME280;15333;50.010;20.020;2023-05-29T03:55:09;98944.25;;;9.97;100.00
28008;BME280;15333;50.010;20.020;2023-05-29T03:58:14;98948.53;;;10.12;100.00
28008;BME280;15333;50.010;20.020;2023-05-29T04:01:15;98946.38;;;10.30;100.00
28008;BME280;15333;50.010;20.020;2023-05-29T04:04:15;98942.72;;;10.44;100.00
28008;BME280;15333;50.010;20.020;2023-05-29T04:07:16;98943.69;;;10.67;100.00
28008;BME280;15333;50.010;20.020;2023-05-29T04:10:18;98947.91;;;10.82;100.00
28008;BME280;15333;50.010;20.020;2023-05-29T04:13:20;98945.06;;;10.96;100.00
28008;BME280;15333;50.010;20.020;2023-05-29T04:16:21;98945.16;;;11.07;100.00
28008;BME280;15333;50.010;20.020;2023-05-29T04:19:22;98943.28;;;11.31;100.00
28008;BME280;15333;50.010;20.020;2023-05-29T04:22:23;98941.63;;;11.42;100.00
28008;BME280;15333;50.010;20.020;2023-05-29T04:25:24;98947.03;;;11.64;100.00
28008;BME280;15333;50.010;20.020;2023-05-29T04:28:25;98948.91;;;12.08;100.00
28008;BME280;15333;50.010;20.020;2023-05-29T04:31:28;98944.91;;;12.36;100.00
28008;BME280;15333;50.010;20.020;2023-05-29T04:34:30;98941.19;;;12.59;100.00
28008;BME280;15333;50.010;20.020;2023-05-29T04:37:31;98949.94;;;12.83;99.37
28008;BME280;15333;50.010;20.020;2023-05-29T04:40:38;98943.50;;;13.18;96.28
28008;BME280;15333;50.010;20.020;2023-05-29T04:43:41;98943.13;;;13.43;94.17
28008;BME280;15333;50.010;20.020;2023-05-29T04:46:43;98950.69;;;14.21;89.26
28008;BME280;15333;50.010;20.020;2023-05-29T04:49:48;98943.50;;;14.01;88.00
28008;BME280;15333;50.010;20.020;2023-05-29T04:52:50;98947.63;;;14.35;85.26
28008;BME280;15333;50.010;20.020;2023-05-29T04:55:52;98945.75;;;14.57;84.13
28008;BME280;15333;50.010;20.020;2023-05-29T04:58:52;98948.94;;;14.81;81.48
28008;BME280;15333;50.010;20.020;2023-05-29T05:01:55;98948.72;;;15.22;77.69
28008;BME280;15333;50.010;20.020;2023-05-29T05:04:56;98942.31;;;16.28;70.24
28008;BME280;15333;50.010;20.020;2023-05-29T05:07:57;98943.06;;;15.54;71.46
28008;BME280;15333;50.010;20.020;2023-05-29T05:11:02;98941.28;;;16.01;68.63
28008;BME280;15333;50.010;20.020;2023-05-29T05:14:04;98938.59;;;16.38;68.58
28008;BME280;15333;50.010;20.020;2023-05-29T05:17:05;98938.88;;;17.17;64.64
28008;BME280;15333;50.010;20.020;2023-05-29T05:20:06;98936.38;;;17.24;63.71
28008;BME280;15333;50.010;20.020;2023-05-29T05:23:09;98932.28;;;17.38;62.47
28008;BME280;15333;50.010;20.020;2023-05-29T05:26:11;98945.22;;;17.62;60.49
28008;BME280;15333;50.010;20.020;2023-05-29T05:29:12;98943.03;;;17.83;59.03
28008;BME280;15333;50.010;20.020;2023-05-29T05:32:14;98943.63;;;17.77;60.33
28008;BME280;15333;50.010;20.020;2023-05-29T05:35:15;98944.28;;;18.22;57.02
28008;BME280;15333;50.010;20.020;2023-05-29T05:38:18;98942.69;;;17.86;56.94
28008;BME280;15333;50.010;20.020;2023-05-29T05:41:18;98941.31;;;18.08;56.36
28008;BME280;15333;50.010;20.020;2023-05-29T05:44:20;98951.00;;;18.78;53.65
28008;BME280;15333;50.010;20.020;2023-05-29T05:47:24;98950.34;;;18.16;56.84
28008;BME280;15333;50.010;20.020;2023-05-29T05:50:26;98946.28;;;17.69;57.19
28008;BME280;15333;50.010;20.020;2023-05-29T05:53:26;98951.53;;;18.48;55.14
28008;BME280;15333;50.010;20.020;2023-05-29T05:56:27;98954.38;;;18.72;54.44
28008;BME280;15333;50.010;20.020;2023-05-29T05:59:28;98959.69;;;17.96;57.48
28008;BME280;15333;50.010;20.020;2023-05-29T06:02:29;98959.91;;;18.03;57.03
28008;BME280;15333;50.010;20.020;2023-05-29T06:05:31;98957.94;;;17.16;59.98
28008;BME280;15333;50.010;20.020;2023-05-29T06:08:33;98961.88;;;17.04;60.86
28008;BME280;15333;50.010;20.020;2023-05-29T06:11:34;98961.69;;;16.60;63.33
28008;BME280;15333;50.010;20.020;2023-05-29T06:14:35;98966.97;;;17.07;59.89
28008;BME280;15333;50.010;20.020;2023-05-29T06:17:36;98967.09;;;16.88;60.29
28008;BME280;15333;50.010;20.020;2023-05-29T06:20:39;98973.78;;;16.10;63.20
28008;BME280;15333;50.010;20.020;2023-05-29T06:23:41;98975.47;;;16.67;61.45
28008;BME280;15333;50.010;20.020;2023-05-29T06:26:42;98971.28;;;17.00;60.88
28008;BME280;15333;50.010;20.020;2023-05-29T06:29:46;98977.78;;;17.07;61.00
28008;BME280;15333;50.010;20.020;2023-05-29T06:32:47;98978.06;;;16.49;62.31
28008;BME280;15333;50.010;20.020;2023-05-29T06:35:48;98987.41;;;16.64;62.49
28008;BME280;15333;50.010;20.020;2023-05-29T06:38:51;98981.28;;;17.17;59.51
28008;BME280;15333;50.010;20.020;2023-05-29T06:41:52;98994.13;;;16.88;60.83
28008;BME280;15333;50.010;20.020;2023-05-29T06:44:53;98995.09;;;17.14;59.53
28008;BME280;15333;50.010;20.020;2023-05-29T06:47:54;99000.22;;;17.17;60.82
28008;BME280;15333;50.010;20.020;2023-05-29T06:50:56;99000.59;;;17.04;60.27
28008;BME280;15333;50.010;20.020;2023-05-29T06:54:15;99000.63;;;17.57;58.81
28008;BME280;15333;50.010;20.020;2023-05-29T06:57:16;98997.22;;;17.38;60.07
28008;BME280;15333;50.010;20.020;2023-05-29T07:00:18;99004.38;;;16.84;62.27
28008;BME280;15333;50.010;20.020;2023-05-29T07:03:30;99006.28;;;17.46;61.36
28008;BME280;15333;50.010;20.020;2023-05-29T07:06:31;99010.41;;;17.68;59.91
28008;BME280;15333;50.010;20.020;2023-05-29T07:09:33;99008.22;;;17.72;59.66
28008;BME280;15333;50.010;20.020;2023-05-29T07:12:35;99001.81;;;17.73;60.08
28008;BME280;15333;50.010;20.020;2023-05-29T07:15:37;99012.16;;;17.95;59.33
28008;BME280;15333;50.010;20.020;2023-05-29T07:18:39;99020.09;;;16.98;63.45
28008;BME280;15333;50.010;20.020;2023-05-29T07:21:41;99018.75;;;17.75;62.33
28008;BME280;15333;50.010;20.020;2023-05-29T07:24:42;99016.06;;;18.18;58.16
28008;BME280;15333;50.010;20.020;2023-05-29T07:27:43;99013.72;;;17.80;59.52
28008;BME280;15333;50.010;20.020;2023-05-29T07:30:44;99014.69;;;17.43;62.07
28008;BME280;15333;50.010;20.020;2023-05-29T07:33:45;99017.16;;;18.33;58.24
28008;BME280;15333;50.010;20.020;2023-05-29T07:37:06;99018.94;;;18.43;58.07
28008;BME280;15333;50.010;20.020;2023-05-29T07:40:09;99020.06;;;18.32;57.59
28008;BME280;15333;50.010;20.020;2023-05-29T07:43:29;99017.06;;;18.69;57.25
28008;BME280;15333;50.010;20.020;2023-05-29T07:46:34;99020.13;;;18.40;58.37
28008;BME280;15333;50.010;20.020;2023-05-29T07:49:57;99025.25;;;18.25;59.50
28008;BME280;15333;50.010;20.020;2023-05-29T07:53:01;99016.28;;;18.51;58.03
28008;BME280;15333;50.010;20.020;2023-05-29T07:56:03;99018.94;;;18.43;58.40
28008;BME280;15333;50.010;20.020;2023-05-29T07:59:05;99022.81;;;18.66;57.65
28008;BME280;15333;50.010;20.020;2023-05-29T08:02:08;99024.47;;;18.93;56.74
28008;BME280;15333;50.010;20.020;2023-05-29T08:05:24;99023.56;;;19.26;55.69
28008;BME280;15333;50.010;20.020;2023-05-29T08:08:25;99028.31;;;19.16;57.23
28008;BME280;15333;50.010;20.020;2023-05-29T08:11:26;99016.09;;;19.20;55.67
28008;BME280;15333;50.010;20.020;2023-05-29T08:14:27;99023.97;;;19.39;55.63
28008;BME280;15333;50.010;20.020;2023-05-29T08:17:30;99017.63;;;19.89;54.71
28008;BME280;15333;50.010;20.020;2023-05-29T08:20:31;99018.78;;;20.35;53.17
28008;BME280;15333;50.010;20.020;2023-05-29T08:23:32;99017.81;;;18.53;56.46
28008;BME280;15333;50.010;20.020;2023-05-29T08:26:33;99015.56;;;18.49;58.67
28008;BME280;15333;50.010;20.020;2023-05-29T08:29:34;99016.66;;;19.40;56.10
28008;BME280;15333;50.010;20.020;2023-05-29T08:32:36;99018.09;;;19.52;55.07
28008;BME280;15333;50.010;20.020;2023-05-29T08:35:38;99015.72;;;20.30;53.77
28008;BME280;15333;50.010;20.020;2023-05-29T08:38:39;99007.38;;;20.48;51.07
28008;BME280;15333;50.010;20.020;2023-05-29T08:44:47;99019.50;;;19.22;55.85
28008;BME280;15333;50.010;20.020;2023-05-29T08:47:53;99016.41;;;19.91;54.70
28008;BME280;15333;50.010;20.020;2023-05-29T08:50:56;99022.13;;;20.69;51.66
28008;BME280;15333;50.010;20.020;2023-05-29T08:53:57;99021.00;;;21.03;50.70
28008;BME280;15333;50.010;20.020;2023-05-29T08:56:59;99022.13;;;21.47;49.90
28008;BME280;15333;50.010;20.020;2023-05-29T09:00:02;99029.16;;;19.91;54.03
28008;BME280;15333;50.010;20.020;2023-05-29T09:03:11;99019.16;;;20.95;51.75
28008;BME280;15333;50.010;20.020;2023-05-29T09:06:13;99011.75;;;21.12;52.04
28008;BME280;15333;50.010;20.020;2023-05-29T09:09:15;99009.03;;;21.20;50.38
28008;BME280;15333;50.010;20.020;2023-05-29T09:12:16;99010.03;;;21.11;49.88
28008;BME280;15333;50.010;20.020;2023-05-29T09:15:19;99006.28;;;21.12;49.73
28008;BME280;15333;50.010;20.020;2023-05-29T09:18:21;99007.78;;;20.84;49.49
28008;BME280;15333;50.010;20.020;2023-05-29T09:21:26;99005.28;;;21.21;48.22
28008;BME280;15333;50.010;20.020;2023-05-29T09:24:28;99001.53;;;21.22;47.16
28008;BME280;15333;50.010;20.020;2023-05-29T09:27:29;99001.22;;;21.09;47.31
28008;BME280;15333;50.010;20.020;2023-05-29T09:30:45;99005.66;;;21.10;47.30
28008;BME280;15333;50.010;20.020;2023-05-29T09:33:48;98999.78;;;21.29;46.44
28008;BME280;15333;50.010;20.020;2023-05-29T09:36:52;99000.84;;;21.12;45.02
28008;BME280;15333;50.010;20.020;2023-05-29T09:39:53;99005.72;;;20.94;47.30
28008;BME280;15333;50.010;20.020;2023-05-29T09:42:54;99002.44;;;21.45;47.05
28008;BME280;15333;50.010;20.020;2023-05-29T09:45:55;98998.19;;;21.66;46.02
28008;BME280;15333;50.010;20.020;2023-05-29T09:49:01;98996.25;;;21.52;45.94
28008;BME280;15333;50.010;20.020;2023-05-29T09:52:04;98999.63;;;21.54;46.71
28008;BME280;15333;50.010;20.020;2023-05-29T09:55:06;99004.69;;;21.34;45.44
28008;BME280;15333;50.010;20.020;2023-05-29T09:58:07;99001.78;;;21.35;46.31
28008;BME280;15333;50.010;20.020;2023-05-29T10:01:10;98999.63;;;21.54;46.73
28008;BME280;15333;50.010;20.020;2023-05-29T10:04:12;99004.13;;;21.92;45.46
28008;BME280;15333;50.010;20.020;2023-05-29T10:07:27;99000.50;;;22.00;45.69
28008;BME280;15333;50.010;20.020;2023-05-29T10:10:29;98991.41;;;22.07;45.20
28008;BME280;15333;50.010;20.020;2023-05-29T10:13:34;98993.03;;;21.94;44.04
28008;BME280;15333;50.010;20.020;2023-05-29T10:16:41;98998.56;;;22.08;44.35
28008;BME280;15333;50.010;20.020;2023-05-29T10:19:45;98991.91;;;21.65;45.25
28008;BME280;15333;50.010;20.020;2023-05-29T10:22:49;99007.50;;;21.94;43.33
28008;BME280;15333;50.010;20.020;2023-05-29T10:25:55;99001.38;;;21.92;43.53
28008;BME280;15333;50.010;20.020;2023-05-29T10:32:36;98990.13;;;21.95;45.13
28008;BME280;15333;50.010;20.020;2023-05-29T10:35:47;98980.00;;;22.56;43.02
28008;BME280;15333;50.010;20.020;2023-05-29T10:38:49;98982.06;;;22.39;42.10
28008;BME280;15333;50.010;20.020;2023-05-29T10:41:50;98971.03;;;22.18;41.76
28008;BME280;15333;50.010;20.020;2023-05-29T10:44:52;98985.22;;;22.13;41.35
28008;BME280;15333;50.010;20.020;2023-05-29T10:47:53;98978.91;;;22.13;41.42
28008;BME280;15333;50.010;20.020;2023-05-29T10:50:55;98974.91;;;22.23;41.02
28008;BME280;15333;50.010;20.020;2023-05-29T10:53:56;98967.75;;;22.22;41.30
28008;BME280;15333;50.010;20.020;2023-05-29T10:56:58;98983.34;;;22.14;41.83
28008;BME280;15333;50.010;20.020;2023-05-29T11:00:07;98976.50;;;20.88;44.36
28008;BME280;15333;50.010;20.020;2023-05-29T11:03:20;98975.06;;;21.62;44.21
28008;BME280;15333;50.010;20.020;2023-05-29T11:06:22;98978.09;;;21.67;42.59
28008;BME280;15333;50.010;20.020;2023-05-29T11:09:36;98978.44;;;21.86;42.21
28008;BME280;15333;50.010;20.020;2023-05-29T11:12:56;98976.50;;;21.95;42.62
28008;BME280;15333;50.010;20.020;2023-05-29T11:16:58;98968.03;;;22.27;42.29
28008;BME280;15333;50.010;20.020;2023-05-29T11:19:41;98973.97;;;22.16;42.34
28008;BME280;15333;50.010;20.020;2023-05-29T11:25:50;98974.91;;;22.23;40.62
28008;BME280;15333;50.010;20.020;2023-05-29T11:28:51;98964.03;;;21.78;41.02
28008;BME280;15333;50.010;20.020;2023-05-29T11:32:04;98966.06;;;22.21;39.63
28008;BME280;15333;50.010;20.020;2023-05-29T11:35:07;98966.50;;;22.77;38.79
28008;BME280;15333;50.010;20.020;2023-05-29T11:38:09;98965.84;;;23.26;38.86
28008;BME280;15333;50.010;20.020;2023-05-29T11:41:10;98960.06;;;22.41;40.60
28008;BME280;15333;50.010;20.020;2023-05-29T11:44:13;98963.81;;;22.69;40.01
28008;BME280;15333;50.010;20.020;2023-05-29T11:47:14;98957.91;;;22.65;40.44
28008;BME280;15333;50.010;20.020;2023-05-29T11:50:23;98951.94;;;21.58;41.69
28008;BME280;15333;50.010;20.020;2023-05-29T11:53:25;98966.94;;;21.54;42.21
28008;BME280;15333;50.010;20.020;2023-05-29T11:56:27;98965.59;;;21.95;41.68
28008;BME280;15333;50.010;20.020;2023-05-29T11:59:29;98951.31;;;22.31;42.06
28008;BME280;15333;50.010;20.020;2023-05-29T12:02:31;98946.50;;;22.33;40.80
28008;BME280;15333;50.010;20.020;2023-05-29T12:05:38;98946.72;;;22.75;40.31
28008;BME280;15333;50.010;20.020;2023-05-29T12:08:44;98945.91;;;23.11;39.05
28008;BME280;15333;50.010;20.020;2023-05-29T12:11:51;98951.75;;;23.22;39.65
28008;BME280;15333;50.010;20.020;2023-05-29T12:14:52;98937.59;;;22.83;39.95
28008;BME280;15333;50.010;20.020;2023-05-29T12:17:54;98932.97;;;22.54;40.23
28008;BME280;15333;50.010;20.020;2023-05-29T12:21:03;98932.09;;;22.24;41.36
28008;BME280;15333;50.010;20.020;2023-05-29T12:24:04;98930.13;;;22.62;39.46
28008;BME280;15333;50.010;20.020;2023-05-29T12:27:06;98933.75;;;22.77;39.65
28008;BME280;15333;50.010;20.020;2023-05-29T12:30:12;98925.25;;;22.72;39.00
28008;BME280;15333;50.010;20.020;2023-05-29T12:33:29;98920.56;;;23.17;39.81
28008;BME280;15333;50.010;20.020;2023-05-29T12:36:31;98917.31;;;23.07;39.33
28008;BME280;15333;50.010;20.020;2023-05-29T12:39:33;98914.56;;;23.07;39.07
28008;BME280;15333;50.010;20.020;2023-05-29T12:42:34;98908.38;;;22.98;39.04
28008;BME280;15333;50.010;20.020;2023-05-29T12:45:35;98920.75;;;22.79;38.98
28008;BME280;15333;50.010;20.020;2023-05-29T12:48:38;98918.59;;;21.93;40.44
28008;BME280;15333;50.010;20.020;2023-05-29T12:51:40;98909.75;;;21.54;40.00
28008;BME280;15333;50.010;20.020;2023-05-29T12:54:42;98913.28;;;21.77;40.37
28008;BME280;15333;50.010;20.020;2023-05-29T12:57:43;98914.34;;;22.13;39.51
28008;BME280;15333;50.010;20.020;2023-05-29T13:00:46;98912.03;;;21.65;40.45
28008;BME280;15333;50.010;20.020;2023-05-29T13:03:47;98913.81;;;21.58;40.03
28008;BME280;15333;50.010;20.020;2023-05-29T13:06:48;98909.03;;;21.74;40.40
28008;BME280;15333;50.010;20.020;2023-05-29T13:09:49;98910.56;;;21.77;40.05
28008;BME280;15333;50.010;20.020;2023-05-29T13:12:50;98912.91;;;22.03;38.60
28008;BME280;15333;50.010;20.020;2023-05-29T13:15:55;98904.91;;;22.60;38.52
28008;BME280;15333;50.010;20.020;2023-05-29T13:18:56;98909.06;;;22.56;38.38
28008;BME280;15333;50.010;20.020;2023-05-29T13:21:57;98894.06;;;22.31;40.32
28008;BME280;15333;50.010;20.020;2023-05-29T13:24:58;98899.44;;;21.64;40.17
28008;BME280;15333;50.010;20.020;2023-05-29T13:28:00;98892.94;;;21.87;40.69
28008;BME280;15333;50.010;20.020;2023-05-29T13:31:00;98902.69;;;21.82;40.42
28008;BME280;15333;50.010;20.020;2023-05-29T13:34:01;98895.72;;;22.02;39.69
28008;BME280;15333;50.010;20.020;2023-05-29T13:37:02;98898.06;;;22.05;39.55
28008;BME280;15333;50.010;20.020;2023-05-29T13:40:04;98883.84;;;21.58;40.05
28008;BME280;15333;50.010;20.020;2023-05-29T13:43:05;98883.88;;;21.72;39.52
28008;BME280;15333;50.010;20.020;2023-05-29T13:46:06;98877.66;;;22.01;39.62
28008;BME280;15333;50.010;20.020;2023-05-29T13:49:07;98873.59;;;22.56;38.46
28008;BME280;15333;50.010;20.020;2023-05-29T13:52:08;98867.78;;;22.59;39.06
28008;BME280;15333;50.010;20.020;2023-05-29T13:55:09;98868.25;;;22.48;38.92
28008;BME280;15333;50.010;20.020;2023-05-29T13:58:10;98867.16;;;22.27;39.45
28008;BME280;15333;50.010;20.020;2023-05-29T14:01:11;98861.75;;;22.49;39.01
28008;BME280;15333;50.010;20.020;2023-05-29T14:04:12;98866.53;;;22.76;37.74
28008;BME280;15333;50.010;20.020;2023-05-29T14:07:13;98865.91;;;22.95;37.44
28008;BME280;15333;50.010;20.020;2023-05-29T14:10:14;98869.19;;;22.25;39.05
28008;BME280;15333;50.010;20.020;2023-05-29T14:13:15;98869.34;;;21.80;38.65
28008;BME280;15333;50.010;20.020;2023-05-29T14:16:16;98865.06;;;22.00;39.10
28008;BME280;15333;50.010;20.020;2023-05-29T14:19:17;98864.47;;;22.78;38.34
28008;BME280;15333;50.010;20.020;2023-05-29T14:22:18;98853.94;;;22.46;39.38
28008;BME280;15333;50.010;20.020;2023-05-29T14:25:19;98861.53;;;21.77;40.78
28008;BME280;15333;50.010;20.020;2023-05-29T14:28:20;98863.00;;;22.32;40.23
28008;BME280;15333;50.010;20.020;2023-05-29T14:31:21;98856.97;;;22.51;39.58
28008;BME280;15333;50.010;20.020;2023-05-29T14:34:22;98862.03;;;22.54;38.74
28008;BME280;15333;50.010;20.020;2023-05-29T14:37:23;98862.88;;;22.54;39.09
28008;BME280;15333;50.010;20.020;2023-05-29T14:40:24;98858.63;;;22.81;38.07
28008;BME280;15333;50.010;20.020;2023-05-29T14:43:25;98850.75;;;23.08;38.03
28008;BME280;15333;50.010;20.020;2023-05-29T14:46:26;98856.69;;;22.96;38.44
28008;BME280;15333;50.010;20.020;2023-05-29T14:49:28;98845.91;;;21.71;39.38
28008;BME280;15333;50.010;20.020;2023-05-29T14:52:32;98851.81;;;21.97;39.86
28008;BME280;15333;50.010;20.020;2023-05-29T14:55:34;98849.78;;;21.91;39.41
28008;BME280;15333;50.010;20.020;2023-05-29T14:58:38;98858.59;;;22.16;38.53
28008;BME280;15333;50.010;20.020;2023-05-29T15:01:39;98846.19;;;21.76;38.68
28008;BME280;15333;50.010;20.020;2023-05-29T15:04:40;98853.31;;;22.14;38.55
28008;BME280;15333;50.010;20.020;2023-05-29T15:07:41;98849.13;;;22.62;36.74
28008;BME280;15333;50.010;20.020;2023-05-29T15:10:42;98852.44;;;22.73;36.24
28008;BME280;15333;50.010;20.020;2023-05-29T15:13:42;98857.31;;;22.77;36.53
28008;BME280;15333;50.010;20.020;2023-05-29T15:16:44;98856.47;;;21.74;36.86
28008;BME280;15333;50.010;20.020;2023-05-29T15:19:45;98856.53;;;21.66;37.50
28008;BME280;15333;50.010;20.020;2023-05-29T15:22:47;98847.47;;;21.88;37.59
28008;BME280;15333;50.010;20.020;2023-05-29T15:25:51;98849.28;;;22.25;36.74
28008;BME280;15333;50.010;20.020;2023-05-29T15:28:53;98843.69;;;22.77;36.19
28008;BME280;15333;50.010;20.020;2023-05-29T15:31:54;98848.66;;;23.31;35.90
28008;BME280;15333;50.010;20.020;2023-05-29T15:34:55;98843.03;;;22.75;37.83
28008;BME280;15333;50.010;20.020;2023-05-29T15:37:56;98837.59;;;22.96;36.74
28008;BME280;15333;50.010;20.020;2023-05-29T15:40:57;98841.63;;;22.64;37.89
28008;BME280;15333;50.010;20.020;2023-05-29T15:43:58;98844.50;;;21.75;38.22
28008;BME280;15333;50.010;20.020;2023-05-29T15:46:59;98843.13;;;21.94;38.25
28008;BME280;15333;50.010;20.020;2023-05-29T15:50:00;98844.69;;;23.12;36.39
28008;BME280;15333;50.010;20.020;2023-05-29T15:53:01;98846.78;;;23.53;35.67
28008;BME280;15333;50.010;20.020;2023-05-29T15:56:02;98856.09;;;23.58;35.59
28008;BME280;15333;50.010;20.020;2023-05-29T15:59:03;98848.56;;;23.67;35.96
28008;BME280;15333;50.010;20.020;2023-05-29T16:02:05;98845.25;;;23.99;35.15
28008;BME280;15333;50.010;20.020;2023-05-29T16:05:07;98849.97;;;23.35;35.42
28008;BME280;15333;50.010;20.020;2023-05-29T16:08:08;98839.00;;;23.77;34.96
28008;BME280;15333;50.010;20.020;2023-05-29T16:11:09;98849.38;;;23.61;35.53
28008;BME280;15333;50.010;20.020;2023-05-29T16:14:10;98847.59;;;23.74;35.83
28008;BME280;15333;50.010;20.020;2023-05-29T16:17:11;98846.59;;;23.82;35.39
28008;BME280;15333;50.010;20.020;2023-05-29T16:20:12;98848.22;;;23.49;35.53
28008;BME280;15333;50.010;20.020;2023-05-29T16:23:14;98840.69;;;23.78;35.76